createdAt,value
2017-03-06T00:00:13.904Z,16.91
2017-03-06T00:01:24.175Z,16.93
2017-03-06T00:02:33.940Z,16.93
2017-03-06T00:03:43.248Z,16.94
2017-03-06T00:04:53.002Z,16.83
2017-03-06T00:06:02.802Z,16.82
2017-03-06T00:07:12.181Z,16.83
2017-03-06T00:08:21.930Z,16.85
2017-03-06T00:09:31.267Z,16.82
2017-03-06T00:10:40.579Z,16.88
2017-03-06T00:11:50.336Z,16.81
2017-03-06T00:13:00.143Z,16.85
2017-03-06T00:14:09.452Z,16.83
2017-03-06T00:15:19.196Z,16.88
2017-03-06T00:16:28.946Z,16.85
2017-03-06T00:17:38.694Z,16.83
2017-03-06T00:18:48.932Z,16.85
2017-03-06T00:19:58.681Z,16.82
2017-03-06T00:21:08.447Z,16.78
2017-03-06T00:22:18.190Z,16.82
2017-03-06T00:23:27.957Z,16.78
2017-03-06T00:24:37.766Z,16.79
2017-03-06T00:25:47.526Z,16.76
2017-03-06T00:26:57.725Z,16.81
2017-03-06T00:28:07.478Z,16.83
2017-03-06T00:29:17.230Z,16.82
2017-03-06T00:30:27.920Z,16.83
2017-03-06T00:31:38.125Z,16.78
2017-03-06T00:32:47.426Z,16.75
2017-03-06T00:33:57.602Z,16.78
2017-03-06T00:35:08.245Z,16.73
2017-03-06T00:36:17.632Z,16.79
2017-03-06T00:37:27.822Z,16.79
2017-03-06T00:38:38.453Z,16.73
2017-03-06T00:39:47.822Z,16.76
2017-03-06T00:40:57.589Z,16.75
2017-03-06T00:42:07.843Z,16.71
2017-03-06T00:43:17.613Z,16.79
2017-03-06T00:44:28.258Z,16.7
2017-03-06T00:45:38.451Z,16.68
2017-03-06T00:46:48.197Z,16.76
2017-03-06T00:47:58.016Z,16.82
2017-03-06T00:49:07.342Z,16.76
2017-03-06T00:50:16.667Z,16.71
2017-03-06T00:51:26.404Z,16.73
2017-03-06T00:52:36.575Z,16.68
2017-03-06T00:53:46.382Z,16.66
2017-03-06T00:54:56.557Z,16.76
2017-03-06T00:56:06.353Z,16.61
2017-03-06T00:57:16.982Z,16.63
2017-03-06T00:58:26.307Z,16.61
2017-03-06T00:59:36.110Z,16.7
2017-03-06T01:00:46.299Z,16.73
2017-03-06T01:01:56.062Z,16.6
2017-03-06T01:03:07.128Z,16.67
2017-03-06T01:04:16.873Z,16.66
2017-03-06T01:05:27.095Z,16.66
2017-03-06T01:06:36.852Z,16.61
2017-03-06T01:07:47.034Z,16.64
2017-03-06T01:08:56.799Z,16.63
2017-03-06T01:10:06.546Z,16.58
2017-03-06T01:11:17.217Z,16.61
2017-03-06T01:12:26.966Z,16.63
2017-03-06T01:13:37.175Z,16.68
2017-03-06T01:14:46.501Z,16.61
2017-03-06T01:15:55.826Z,16.67
2017-03-06T01:17:05.187Z,16.58
2017-03-06T01:18:15.388Z,16.64
2017-03-06T01:19:25.148Z,16.6
2017-03-06T01:20:34.882Z,16.64
2017-03-06T01:21:44.199Z,16.56
2017-03-06T01:22:54.465Z,16.5
2017-03-06T01:24:03.778Z,16.6
2017-03-06T01:25:13.105Z,16.52
2017-03-06T01:26:23.280Z,16.53
2017-03-06T01:27:32.605Z,16.52
2017-03-06T01:28:41.979Z,16.56
2017-03-06T01:29:51.312Z,16.49
2017-03-06T01:31:01.097Z,16.5
2017-03-06T01:32:10.838Z,16.49
2017-03-06T01:33:20.590Z,16.52
2017-03-06T01:34:30.852Z,16.49
2017-03-06T01:35:40.190Z,16.5
2017-03-06T01:36:50.803Z,16.52
2017-03-06T01:38:00.116Z,16.46
2017-03-06T01:39:10.748Z,16.45
2017-03-06T01:40:21.861Z,16.48
2017-03-06T01:41:32.046Z,16.57
2017-03-06T01:42:42.251Z,16.46
2017-03-06T01:43:52.497Z,16.52
2017-03-06T01:45:01.828Z,16.56
2017-03-06T01:46:11.684Z,16.52
2017-03-06T01:47:21.001Z,16.48
2017-03-06T01:48:30.759Z,16.49
2017-03-06T01:49:40.087Z,16.46
2017-03-06T01:50:49.836Z,16.42
2017-03-06T01:51:59.194Z,16.49
2017-03-06T01:53:08.526Z,16.52
2017-03-06T01:54:19.143Z,16.48
2017-03-06T01:55:29.757Z,16.42
2017-03-06T01:56:39.503Z,16.48
2017-03-06T01:57:48.876Z,16.46
2017-03-06T01:58:58.200Z,16.46
2017-03-06T02:00:07.526Z,16.43
2017-03-06T02:01:17.274Z,16.49
2017-03-06T02:02:27.464Z,16.41
2017-03-06T02:03:36.832Z,16.43
2017-03-06T02:04:47.009Z,16.42
2017-03-06T02:05:57.191Z,16.42
2017-03-06T02:07:06.945Z,16.48
2017-03-06T02:08:16.268Z,16.48
2017-03-06T02:09:27.386Z,16.48
2017-03-06T02:10:37.156Z,16.43
2017-03-06T02:11:46.916Z,16.41
2017-03-06T02:12:56.681Z,16.45
2017-03-06T02:14:06.860Z,16.45
2017-03-06T02:15:16.657Z,16.39
2017-03-06T02:16:27.810Z,16.42
2017-03-06T02:17:37.546Z,16.39
2017-03-06T02:18:47.300Z,16.42
2017-03-06T02:19:56.620Z,16.43
2017-03-06T02:21:07.303Z,16.42
2017-03-06T02:22:17.919Z,16.41
2017-03-06T02:23:28.084Z,16.39
2017-03-06T02:24:38.710Z,16.38
2017-03-06T02:25:48.888Z,16.3
2017-03-06T02:26:59.143Z,16.33
2017-03-06T02:28:09.337Z,16.39
2017-03-06T02:29:19.091Z,16.42
2017-03-06T02:30:29.729Z,16.39
2017-03-06T02:31:39.921Z,16.38
2017-03-06T02:32:50.167Z,16.3
2017-03-06T02:33:59.508Z,16.38
2017-03-06T02:35:09.283Z,16.34
2017-03-06T02:36:19.461Z,16.38
2017-03-06T02:37:29.650Z,16.33
2017-03-06T02:38:39.959Z,16.31
2017-03-06T02:39:49.724Z,16.38
2017-03-06T02:41:00.787Z,16.35
2017-03-06T02:42:10.968Z,16.33
2017-03-06T02:43:20.708Z,16.31
2017-03-06T02:44:31.394Z,16.3
2017-03-06T02:45:41.602Z,16.3
2017-03-06T02:46:51.793Z,16.33
2017-03-06T02:48:02.408Z,16.31
2017-03-06T02:49:12.600Z,16.33
2017-03-06T02:50:22.417Z,16.3
2017-03-06T02:51:32.589Z,16.3
2017-03-06T02:52:42.798Z,16.33
2017-03-06T02:53:53.867Z,16.39
2017-03-06T02:55:03.619Z,16.34
2017-03-06T02:56:14.730Z,16.3
2017-03-06T02:57:24.486Z,16.31
2017-03-06T02:58:34.231Z,16.38
2017-03-06T02:59:44.413Z,16.38
2017-03-06T03:00:54.161Z,16.31
2017-03-06T03:02:03.958Z,16.31
2017-03-06T03:03:14.137Z,16.28
2017-03-06T03:04:23.446Z,16.27
2017-03-06T03:05:33.646Z,16.3
2017-03-06T03:06:43.375Z,16.31
2017-03-06T03:07:53.184Z,16.34
2017-03-06T03:09:02.933Z,16.33
2017-03-06T03:10:13.104Z,16.35
2017-03-06T03:11:22.873Z,16.25
2017-03-06T03:12:33.077Z,16.25
2017-03-06T03:13:43.308Z,16.3
2017-03-06T03:14:53.483Z,16.3
2017-03-06T03:16:03.244Z,16.35
2017-03-06T03:17:12.989Z,16.35
2017-03-06T03:18:24.056Z,16.27
2017-03-06T03:19:33.860Z,16.34
2017-03-06T03:20:43.602Z,16.34
2017-03-06T03:21:54.250Z,16.34
2017-03-06T03:23:04.863Z,16.34
2017-03-06T03:24:14.642Z,16.23
2017-03-06T03:25:23.995Z,16.33
2017-03-06T03:26:34.183Z,16.2
2017-03-06T03:27:44.353Z,16.28
2017-03-06T03:28:54.538Z,16.23
2017-03-06T03:30:04.722Z,16.21
2017-03-06T03:31:15.393Z,16.23
2017-03-06T03:32:25.132Z,16.21
2017-03-06T03:33:36.202Z,16.24
2017-03-06T03:34:45.935Z,16.17
2017-03-06T03:35:56.118Z,16.33
2017-03-06T03:37:06.557Z,16.25
2017-03-06T03:38:17.184Z,16.2
2017-03-06T03:39:27.391Z,16.23
2017-03-06T03:40:38.025Z,16.27
2017-03-06T03:41:49.091Z,16.24
2017-03-06T03:42:59.319Z,16.24
2017-03-06T03:44:09.956Z,16.25
2017-03-06T03:45:20.150Z,16.24
2017-03-06T03:46:30.758Z,16.2
2017-03-06T03:47:41.393Z,16.21
2017-03-06T03:48:51.623Z,16.28
2017-03-06T03:50:01.800Z,16.28
2017-03-06T03:51:11.555Z,16.23
2017-03-06T03:52:22.183Z,16.21
2017-03-06T03:53:31.927Z,16.17
2017-03-06T03:54:42.174Z,16.23
2017-03-06T03:55:51.956Z,16.25
2017-03-06T03:57:02.126Z,16.2
2017-03-06T03:58:12.318Z,16.2
2017-03-06T03:59:22.076Z,16.25
2017-03-06T04:00:32.305Z,16.21
2017-03-06T04:01:42.478Z,16.21
2017-03-06T04:02:53.124Z,16.17
2017-03-06T04:04:02.869Z,16.23
2017-03-06T04:05:13.061Z,16.17
2017-03-06T04:06:22.420Z,16.17
2017-03-06T04:07:31.741Z,16.23
2017-03-06T04:08:42.350Z,16.25
2017-03-06T04:09:52.103Z,16.14
2017-03-06T04:11:01.416Z,16.15
2017-03-06T04:12:11.364Z,16.17
2017-03-06T04:13:21.531Z,16.14
2017-03-06T04:14:31.711Z,16.11
2017-03-06T04:15:42.756Z,16.2
2017-03-06T04:16:53.828Z,16.09
2017-03-06T04:18:04.516Z,16.09
2017-03-06T04:19:13.843Z,16.15
2017-03-06T04:20:23.582Z,16.15
2017-03-06T04:21:33.327Z,16.12
2017-03-06T04:22:43.062Z,16.2
2017-03-06T04:23:52.421Z,16.11
2017-03-06T04:25:02.194Z,16.12
2017-03-06T04:26:11.938Z,16.07
2017-03-06T04:27:21.687Z,16.11
2017-03-06T04:28:32.748Z,16.07
2017-03-06T04:29:43.872Z,16.12
2017-03-06T04:30:53.623Z,16.15
2017-03-06T04:32:03.836Z,16.15
2017-03-06T04:33:14.446Z,16.08
2017-03-06T04:34:24.194Z,16.08
2017-03-06T04:35:34.436Z,16.14
2017-03-06T04:36:44.624Z,16.08
2017-03-06T04:37:53.951Z,16.12
2017-03-06T04:39:03.251Z,16.14
2017-03-06T04:40:13.446Z,16.12
2017-03-06T04:41:24.131Z,16.08
2017-03-06T04:42:33.874Z,16.15
2017-03-06T04:43:44.069Z,16.09
2017-03-06T04:44:54.254Z,16.09
2017-03-06T04:46:04.467Z,16.08
2017-03-06T04:47:14.704Z,16.11
2017-03-06T04:48:24.913Z,16.04
2017-03-06T04:49:34.657Z,16.09
2017-03-06T04:50:44.411Z,16.05
2017-03-06T04:51:54.607Z,16.09
2017-03-06T04:53:04.830Z,16.12
2017-03-06T04:54:15.014Z,16.12
2017-03-06T04:55:25.191Z,16.04
2017-03-06T04:56:35.386Z,16.08
2017-03-06T04:57:45.602Z,16.01
2017-03-06T04:58:55.402Z,16.14
2017-03-06T05:00:06.473Z,16.02
2017-03-06T05:01:16.218Z,16.07
2017-03-06T05:02:25.983Z,16.02
2017-03-06T05:03:37.031Z,15.97
2017-03-06T05:04:47.262Z,16.02
2017-03-06T05:05:57.039Z,16.01
2017-03-06T05:07:06.347Z,16.01
2017-03-06T05:08:17.428Z,15.97
2017-03-06T05:09:27.221Z,16.04
2017-03-06T05:10:37.892Z,16.01
2017-03-06T05:11:48.528Z,16.07
2017-03-06T05:12:58.290Z,16.07
2017-03-06T05:14:08.042Z,16.04
2017-03-06T05:15:18.667Z,16.04
2017-03-06T05:16:28.892Z,15.96
2017-03-06T05:17:39.064Z,15.92
2017-03-06T05:18:49.238Z,16.02
2017-03-06T05:19:58.984Z,16.07
2017-03-06T05:21:09.626Z,16.01
2017-03-06T05:22:20.298Z,16.05
2017-03-06T05:23:30.471Z,16.05
2017-03-06T05:24:40.668Z,16.02
2017-03-06T05:25:51.287Z,15.94
2017-03-06T05:27:01.060Z,15.92
2017-03-06T05:28:10.433Z,15.94
2017-03-06T05:29:19.741Z,15.96
2017-03-06T05:30:29.500Z,15.92
2017-03-06T05:31:38.811Z,16.02
2017-03-06T05:32:48.572Z,16.01
2017-03-06T05:33:58.374Z,15.97
2017-03-06T05:35:09.435Z,15.96
2017-03-06T05:36:19.621Z,15.92
2017-03-06T05:37:29.369Z,16
2017-03-06T05:38:40.422Z,16
2017-03-06T05:39:51.071Z,16.02
2017-03-06T05:41:01.261Z,15.93
2017-03-06T05:42:11.446Z,15.94
2017-03-06T05:43:20.755Z,16
2017-03-06T05:44:31.814Z,16
2017-03-06T05:45:42.043Z,16
2017-03-06T05:46:52.223Z,15.97
2017-03-06T05:48:02.859Z,15.97
2017-03-06T05:49:13.053Z,15.93
2017-03-06T05:50:23.707Z,15.94
2017-03-06T05:51:33.928Z,16
2017-03-06T05:52:43.690Z,15.97
2017-03-06T05:53:53.013Z,16
2017-03-06T05:55:02.755Z,16
2017-03-06T05:56:12.500Z,16
2017-03-06T05:57:23.609Z,15.96
2017-03-06T05:58:34.218Z,15.97
2017-03-06T05:59:44.412Z,15.97
2017-03-06T06:00:53.721Z,15.96
2017-03-06T06:02:03.958Z,15.96
2017-03-06T06:03:13.755Z,15.96
2017-03-06T06:04:23.936Z,15.94
2017-03-06T06:05:33.675Z,15.96
2017-03-06T06:06:43.428Z,15.94
2017-03-06T06:07:53.165Z,15.96
2017-03-06T06:09:02.961Z,15.89
2017-03-06T06:10:12.726Z,15.96
2017-03-06T06:11:23.401Z,15.96
2017-03-06T06:12:33.585Z,16
2017-03-06T06:13:43.799Z,15.96
2017-03-06T06:14:54.056Z,15.94
2017-03-06T06:16:03.808Z,15.96
2017-03-06T06:17:13.989Z,15.96
2017-03-06T06:18:24.171Z,15.97
2017-03-06T06:19:34.388Z,15.96
2017-03-06T06:20:43.761Z,15.96
2017-03-06T06:21:54.395Z,16
2017-03-06T06:23:04.124Z,15.94
2017-03-06T06:24:14.306Z,16
2017-03-06T06:25:24.050Z,15.96
2017-03-06T06:26:33.990Z,15.96
2017-03-06T06:27:43.724Z,15.96
2017-03-06T06:28:53.913Z,15.94
2017-03-06T06:30:03.655Z,15.94
2017-03-06T06:31:13.411Z,15.92
2017-03-06T06:32:24.106Z,16.01
2017-03-06T06:33:34.281Z,16.02
2017-03-06T06:34:44.925Z,16
2017-03-06T06:35:54.241Z,15.94
2017-03-06T06:37:03.558Z,15.96
2017-03-06T06:38:13.822Z,16.05
2017-03-06T06:39:23.555Z,15.93
2017-03-06T06:40:33.728Z,16.02
2017-03-06T06:41:44.794Z,16.05
2017-03-06T06:42:54.971Z,16.07
2017-03-06T06:44:05.225Z,15.97
2017-03-06T06:45:15.855Z,16.01
2017-03-06T06:46:26.044Z,16.02
2017-03-06T06:47:36.667Z,16.09
2017-03-06T06:48:46.861Z,16.09
2017-03-06T06:49:57.090Z,16.04
2017-03-06T06:51:06.399Z,16.11
2017-03-06T06:52:17.029Z,16.09
2017-03-06T06:53:27.691Z,16.05
2017-03-06T06:54:37.863Z,16.12
2017-03-06T06:55:48.553Z,16.05
2017-03-06T06:56:57.861Z,16.09
2017-03-06T06:58:08.500Z,16.17
2017-03-06T06:59:18.680Z,16.17
2017-03-06T07:00:28.442Z,16.11
2017-03-06T07:01:38.263Z,16.09
2017-03-06T07:02:48.448Z,16.15
2017-03-06T07:03:58.197Z,16.2
2017-03-06T07:05:07.513Z,16.2
2017-03-06T07:06:17.694Z,16.15
2017-03-06T07:07:27.929Z,16.23
2017-03-06T07:08:37.684Z,16.2
2017-03-06T07:09:47.418Z,16.2
2017-03-06T07:10:57.595Z,16.21
2017-03-06T07:12:08.248Z,16.28
2017-03-06T07:13:19.809Z,16.23
2017-03-06T07:14:29.126Z,16.21
2017-03-06T07:15:39.308Z,16.23
2017-03-06T07:16:49.107Z,16.3
2017-03-06T07:17:58.844Z,16.23
2017-03-06T07:19:08.637Z,16.23
2017-03-06T07:20:18.820Z,16.23
2017-03-06T07:21:29.436Z,16.28
2017-03-06T07:22:40.495Z,16.24
2017-03-06T07:23:50.236Z,16.25
2017-03-06T07:25:00.469Z,16.28
2017-03-06T07:26:10.659Z,16.28
2017-03-06T07:27:20.413Z,16.28
2017-03-06T07:28:30.170Z,16.21
2017-03-06T07:29:41.234Z,16.15
2017-03-06T07:30:50.603Z,16.28
2017-03-06T07:32:00.812Z,16.25
2017-03-06T07:33:11.449Z,16.2
2017-03-06T07:34:21.654Z,16.17
2017-03-06T07:35:31.849Z,16.3
2017-03-06T07:36:42.085Z,16.35
2017-03-06T07:37:52.735Z,16.24
2017-03-06T07:39:02.497Z,16.31
2017-03-06T07:40:12.672Z,16.3
2017-03-06T07:41:22.849Z,16.31
2017-03-06T07:42:33.088Z,16.35
2017-03-06T07:43:43.284Z,16.27
2017-03-06T07:44:53.041Z,16.42
2017-03-06T07:46:03.222Z,16.48
2017-03-06T07:47:13.842Z,16.43
2017-03-06T07:48:24.070Z,16.45
2017-03-06T07:49:34.686Z,16.49
2017-03-06T07:50:44.435Z,16.43
2017-03-06T07:51:55.069Z,16.45
2017-03-06T07:53:04.845Z,16.42
2017-03-06T07:54:15.527Z,16.41
2017-03-06T07:55:25.707Z,16.41
2017-03-06T07:56:35.468Z,16.41
2017-03-06T07:57:45.219Z,16.48
2017-03-06T07:58:54.991Z,16.42
2017-03-06T08:00:05.236Z,16.48
2017-03-06T08:01:15.427Z,16.39
2017-03-06T08:02:26.074Z,16.41
2017-03-06T08:03:35.848Z,16.39
2017-03-06T08:04:46.464Z,16.35
2017-03-06T08:05:56.280Z,16.38
2017-03-06T08:07:06.488Z,16.42
2017-03-06T08:08:16.680Z,16.35
2017-03-06T08:09:26.419Z,16.39
2017-03-06T08:10:35.736Z,16.41
2017-03-06T08:11:45.092Z,16.42
2017-03-06T08:12:55.281Z,16.31
2017-03-06T08:14:05.894Z,16.42
2017-03-06T08:15:15.639Z,16.39
2017-03-06T08:16:25.808Z,16.35
2017-03-06T08:17:36.089Z,16.41
2017-03-06T08:18:46.712Z,16.42
2017-03-06T08:19:56.020Z,16.39
2017-03-06T08:21:05.794Z,16.39
2017-03-06T08:22:16.427Z,16.39
2017-03-06T08:23:26.687Z,16.41
2017-03-06T08:24:36.872Z,16.38
2017-03-06T08:25:47.045Z,16.43
2017-03-06T08:26:57.664Z,16.42
2017-03-06T08:28:08.296Z,16.46
2017-03-06T08:29:17.662Z,16.46
2017-03-06T08:30:27.400Z,16.49
2017-03-06T08:31:38.041Z,16.45
2017-03-06T08:32:48.230Z,16.5
2017-03-06T08:33:57.963Z,16.45
2017-03-06T08:35:08.207Z,16.38
2017-03-06T08:36:18.388Z,16.52
2017-03-06T08:37:28.174Z,16.43
2017-03-06T08:38:37.928Z,16.5
2017-03-06T08:39:47.678Z,16.43
2017-03-06T08:40:57.488Z,16.52
2017-03-06T08:42:07.238Z,16.49
2017-03-06T08:43:18.299Z,16.48
2017-03-06T08:44:28.502Z,16.46
2017-03-06T08:45:38.274Z,16.48
2017-03-06T08:46:48.514Z,16.5
2017-03-06T08:47:59.149Z,16.68
2017-03-06T08:49:08.902Z,16.57
2017-03-06T08:50:18.638Z,16.64
2017-03-06T08:51:29.253Z,16.63
2017-03-06T08:52:39.502Z,16.63
2017-03-06T08:53:49.267Z,16.53
2017-03-06T08:54:59.912Z,16.6
2017-03-06T08:56:10.536Z,16.52
2017-03-06T08:57:20.282Z,16.66
2017-03-06T08:58:30.102Z,16.67
2017-03-06T08:59:39.419Z,16.61
2017-03-06T09:00:49.173Z,16.61
2017-03-06T09:01:58.489Z,16.68
2017-03-06T09:03:09.128Z,16.71
2017-03-06T09:04:18.981Z,16.75
2017-03-06T09:05:28.755Z,16.7
2017-03-06T09:06:39.383Z,16.76
2017-03-06T09:07:49.572Z,16.76
2017-03-06T09:09:00.206Z,16.71
2017-03-06T09:10:09.995Z,16.79
2017-03-06T09:11:19.295Z,16.71
2017-03-06T09:12:29.472Z,16.79
2017-03-06T09:13:38.811Z,16.75
2017-03-06T09:14:48.151Z,16.82
2017-03-06T09:15:58.387Z,16.82
2017-03-06T09:17:09.030Z,16.82
2017-03-06T09:18:18.357Z,16.79
2017-03-06T09:19:28.535Z,16.85
2017-03-06T09:20:38.285Z,16.86
2017-03-06T09:21:47.665Z,16.96
2017-03-06T09:22:58.294Z,16.93
2017-03-06T09:24:08.481Z,17.01
2017-03-06T09:25:18.241Z,17.11
2017-03-06T09:26:29.719Z,17.16
2017-03-06T09:27:39.516Z,17.19
2017-03-06T09:28:50.124Z,17.3
2017-03-06T09:29:59.887Z,17.28
2017-03-06T09:31:09.635Z,17.33
2017-03-06T09:32:20.257Z,17.37
2017-03-06T09:33:30.054Z,17.43
2017-03-06T09:34:40.684Z,17.54
2017-03-06T09:35:50.011Z,17.54
2017-03-06T09:37:00.198Z,17.56
2017-03-06T09:38:10.399Z,17.68
2017-03-06T09:39:20.203Z,17.72
2017-03-06T09:40:29.936Z,17.7
2017-03-06T09:41:40.126Z,17.89
2017-03-06T09:42:49.440Z,17.87
2017-03-06T09:43:59.632Z,17.78
2017-03-06T09:45:10.008Z,17.89
2017-03-06T09:46:19.787Z,17.84
2017-03-06T09:47:29.548Z,17.97
2017-03-06T09:48:38.892Z,17.9
2017-03-06T09:49:49.065Z,17.84
2017-03-06T09:50:58.863Z,18
2017-03-06T09:52:08.641Z,18
2017-03-06T09:53:18.836Z,18.07
2017-03-06T09:54:29.905Z,18.07
2017-03-06T09:55:39.659Z,18.05
2017-03-06T09:56:50.328Z,18.12
2017-03-06T09:57:59.641Z,18.03
2017-03-06T09:59:10.714Z,18.07
2017-03-06T10:00:20.465Z,18.18
2017-03-06T10:01:29.789Z,18.18
2017-03-06T10:02:40.026Z,18.2
2017-03-06T10:03:50.213Z,18.18
2017-03-06T10:05:00.828Z,18.35
2017-03-06T10:06:11.448Z,18.32
2017-03-06T10:07:21.188Z,18.3
2017-03-06T10:08:30.984Z,18.5
2017-03-06T10:09:41.169Z,18.52
2017-03-06T10:10:50.490Z,18.69
2017-03-06T10:12:01.127Z,18.75
2017-03-06T10:13:12.210Z,18.81
2017-03-06T10:14:22.003Z,19
2017-03-06T10:15:32.228Z,18.98
2017-03-06T10:16:41.560Z,19
2017-03-06T10:17:51.313Z,19.14
2017-03-06T10:19:01.490Z,19.16
2017-03-06T10:20:12.607Z,19.1
2017-03-06T10:21:22.402Z,19.1
2017-03-06T10:22:32.585Z,19.07
2017-03-06T10:23:43.219Z,19.04
2017-03-06T10:24:53.828Z,18.98
2017-03-06T10:26:03.619Z,19.02
2017-03-06T10:27:13.388Z,18.94
2017-03-06T10:28:23.136Z,18.94
2017-03-06T10:29:32.906Z,18.87
2017-03-06T10:30:43.084Z,18.91
2017-03-06T10:31:53.319Z,18.88
2017-03-06T10:33:03.064Z,18.91
2017-03-06T10:34:13.246Z,18.88
2017-03-06T10:35:22.994Z,18.92
2017-03-06T10:36:33.184Z,18.95
2017-03-06T10:37:42.978Z,19.04
2017-03-06T10:38:52.730Z,18.95
2017-03-06T10:40:03.791Z,18.9
2017-03-06T10:41:14.429Z,18.94
2017-03-06T10:42:24.619Z,19
2017-03-06T10:43:34.564Z,19.04
2017-03-06T10:44:44.764Z,19.18
2017-03-06T10:45:54.514Z,19.18
2017-03-06T10:47:03.842Z,19.21
2017-03-06T10:48:14.040Z,19.32
2017-03-06T10:49:24.281Z,19.44
2017-03-06T10:50:34.045Z,19.55
2017-03-06T10:51:43.786Z,19.51
2017-03-06T10:52:54.420Z,19.51
2017-03-06T10:54:04.598Z,19.43
2017-03-06T10:55:14.402Z,19.43
2017-03-06T10:56:25.439Z,19.29
2017-03-06T10:57:36.069Z,19.26
2017-03-06T10:58:46.247Z,19.25
2017-03-06T10:59:56.439Z,19.28
2017-03-06T11:01:06.244Z,19.39
2017-03-06T11:02:16.869Z,19.39
2017-03-06T11:03:27.054Z,19.29
2017-03-06T11:04:37.229Z,19.32
2017-03-06T11:05:47.434Z,19.28
2017-03-06T11:06:57.322Z,19.25
2017-03-06T11:08:07.936Z,19.14
2017-03-06T11:09:17.682Z,19.13
2017-03-06T11:10:27.431Z,19.07
2017-03-06T11:11:37.180Z,19.07
2017-03-06T11:12:47.132Z,19.08
2017-03-06T11:13:56.437Z,19.07
2017-03-06T11:15:06.630Z,18.99
2017-03-06T11:16:16.385Z,18.98
2017-03-06T11:17:25.688Z,18.99
2017-03-06T11:18:36.382Z,18.9
2017-03-06T11:19:47.020Z,18.92
2017-03-06T11:20:57.209Z,18.91
2017-03-06T11:22:07.425Z,18.95
2017-03-06T11:23:16.770Z,18.88
2017-03-06T11:24:27.527Z,18.92
2017-03-06T11:25:37.714Z,18.9
2017-03-06T11:26:47.026Z,18.95
2017-03-06T11:27:58.100Z,18.94
2017-03-06T11:29:08.289Z,18.92
2017-03-06T11:30:17.649Z,18.98
2017-03-06T11:31:27.840Z,18.94
2017-03-06T11:32:37.145Z,18.91
2017-03-06T11:33:46.897Z,18.91
2017-03-06T11:34:57.079Z,18.92
2017-03-06T11:36:06.480Z,18.9
2017-03-06T11:37:17.114Z,18.91
2017-03-06T11:38:27.762Z,18.99
2017-03-06T11:39:37.092Z,19.1
2017-03-06T11:40:46.824Z,19.19
2017-03-06T11:41:57.070Z,19.11
2017-03-06T11:43:06.830Z,19.22
2017-03-06T11:44:17.871Z,19.31
2017-03-06T11:45:27.649Z,19.32
2017-03-06T11:46:36.967Z,19.36
2017-03-06T11:47:46.344Z,19.33
2017-03-06T11:48:56.548Z,19.4
2017-03-06T11:50:06.726Z,19.33
2017-03-06T11:51:16.916Z,19.36
2017-03-06T11:52:26.679Z,19.36
2017-03-06T11:53:37.520Z,19.33
2017-03-06T11:54:46.838Z,19.32
2017-03-06T11:55:57.472Z,19.26
2017-03-06T11:57:07.232Z,19.25
2017-03-06T11:58:16.981Z,19.21
2017-03-06T11:59:27.200Z,19.22
2017-03-06T12:00:36.961Z,19.21
2017-03-06T12:01:46.705Z,19.21
2017-03-06T12:02:57.343Z,19.13
2017-03-06T12:04:07.097Z,19.14
2017-03-06T12:05:16.902Z,19.06
2017-03-06T12:06:26.219Z,19.07
2017-03-06T12:07:36.396Z,19.08
2017-03-06T12:08:45.713Z,19.02
2017-03-06T12:09:55.946Z,18.98
2017-03-06T12:11:05.326Z,18.94
2017-03-06T12:12:15.519Z,18.95
2017-03-06T12:13:25.256Z,18.95
2017-03-06T12:14:35.938Z,18.98
2017-03-06T12:15:45.700Z,18.92
2017-03-06T12:16:55.929Z,18.92
2017-03-06T12:18:06.597Z,18.84
2017-03-06T12:19:16.335Z,18.92
2017-03-06T12:20:25.681Z,18.84
2017-03-06T12:21:35.885Z,18.91
2017-03-06T12:22:46.571Z,18.82
2017-03-06T12:23:56.759Z,18.84
2017-03-06T12:25:06.957Z,18.87
2017-03-06T12:26:16.699Z,18.85
2017-03-06T12:27:26.012Z,18.75
2017-03-06T12:28:35.823Z,18.87
2017-03-06T12:29:45.564Z,18.75
2017-03-06T12:30:55.739Z,18.75
2017-03-06T12:32:05.487Z,18.84
2017-03-06T12:33:16.117Z,18.78
2017-03-06T12:34:26.398Z,18.8
2017-03-06T12:35:36.156Z,18.76
2017-03-06T12:36:46.344Z,18.82
2017-03-06T12:37:56.521Z,18.75
2017-03-06T12:39:06.288Z,18.78
2017-03-06T12:40:16.517Z,18.81
2017-03-06T12:41:26.698Z,18.8
2017-03-06T12:42:36.883Z,18.76
2017-03-06T12:43:47.074Z,18.84
2017-03-06T12:44:56.384Z,18.82
2017-03-06T12:46:06.663Z,18.84
2017-03-06T12:47:16.422Z,18.87
2017-03-06T12:48:26.625Z,18.82
2017-03-06T12:49:35.921Z,18.85
2017-03-06T12:50:45.699Z,18.88
2017-03-06T12:51:55.056Z,18.84
2017-03-06T12:53:05.682Z,18.84
2017-03-06T12:54:15.873Z,18.78
2017-03-06T12:55:25.196Z,18.88
2017-03-06T12:56:34.517Z,18.8
2017-03-06T12:57:44.325Z,18.78
2017-03-06T12:58:54.962Z,18.87
2017-03-06T13:00:05.180Z,18.75
2017-03-06T13:01:15.373Z,18.76
2017-03-06T13:02:26.015Z,18.67
2017-03-06T13:03:35.376Z,18.7
2017-03-06T13:04:44.705Z,18.73
2017-03-06T13:05:54.442Z,18.66
2017-03-06T13:07:05.068Z,18.62
2017-03-06T13:08:15.708Z,18.65
2017-03-06T13:09:25.940Z,18.62
2017-03-06T13:10:35.742Z,18.63
2017-03-06T13:11:46.368Z,18.51
2017-03-06T13:12:56.148Z,18.63
2017-03-06T13:14:06.779Z,18.54
2017-03-06T13:15:17.014Z,18.44
2017-03-06T13:16:26.763Z,18.54
2017-03-06T13:17:36.514Z,18.44
2017-03-06T13:18:45.831Z,18.44
2017-03-06T13:19:55.588Z,18.45
2017-03-06T13:21:05.380Z,18.41
2017-03-06T13:22:15.577Z,18.45
2017-03-06T13:23:25.768Z,18.42
2017-03-06T13:24:35.547Z,18.47
2017-03-06T13:25:45.735Z,18.41
2017-03-06T13:26:58.520Z,18.42
2017-03-06T13:28:10.081Z,18.44
2017-03-06T13:29:20.945Z,18.47
2017-03-06T13:30:30.469Z,18.44
2017-03-06T13:31:40.827Z,18.51
2017-03-06T13:32:52.320Z,18.48
2017-03-06T13:34:02.753Z,18.48
2017-03-06T13:35:12.816Z,18.47
2017-03-06T13:36:23.077Z,18.51
2017-03-06T13:37:33.374Z,18.48
2017-03-06T13:38:43.527Z,18.45
2017-03-06T13:39:53.403Z,18.51
2017-03-06T13:41:04.313Z,18.42
2017-03-06T13:42:13.757Z,18.41
2017-03-06T13:43:23.866Z,18.5
2017-03-06T13:44:34.683Z,18.52
2017-03-06T13:45:45.121Z,18.57
2017-03-06T13:46:55.051Z,18.62
2017-03-06T13:48:04.976Z,18.55
2017-03-06T13:49:15.584Z,18.55
2017-03-06T13:50:25.525Z,18.6
2017-03-06T13:51:35.376Z,18.58
2017-03-06T13:52:45.344Z,18.6
2017-03-06T13:53:55.906Z,18.6
2017-03-06T13:55:05.854Z,18.57
2017-03-06T13:56:16.471Z,18.69
2017-03-06T13:57:27.166Z,18.67
2017-03-06T13:58:36.747Z,18.75
2017-03-06T13:59:46.819Z,18.66
2017-03-06T14:00:56.796Z,18.78
2017-03-06T14:02:07.337Z,18.75
2017-03-06T14:03:17.306Z,18.8
2017-03-06T14:04:27.787Z,18.84
2017-03-06T14:05:38.657Z,18.88
2017-03-06T14:06:48.598Z,18.76
2017-03-06T14:07:58.907Z,18.8
2017-03-06T14:09:08.973Z,18.88
2017-03-06T14:10:18.578Z,18.8
2017-03-06T14:11:28.110Z,18.88
2017-03-06T14:12:38.575Z,18.91
2017-03-06T14:13:49.142Z,18.92
2017-03-06T14:15:00.042Z,18.92
2017-03-06T14:16:10.475Z,18.87
2017-03-06T14:17:21.448Z,18.91
2017-03-06T14:18:32.738Z,18.94
2017-03-06T14:19:42.616Z,18.94
2017-03-06T14:20:53.164Z,18.9
2017-03-06T14:22:03.781Z,19.02
2017-03-06T14:23:14.816Z,18.88
2017-03-06T14:24:24.878Z,19
2017-03-06T14:25:34.466Z,18.99
2017-03-06T14:26:44.625Z,18.99
2017-03-06T14:27:54.137Z,19.06
2017-03-06T14:29:04.292Z,19.11
2017-03-06T14:30:13.989Z,19.11
2017-03-06T14:31:24.003Z,19.1
2017-03-06T14:32:34.789Z,19.13
2017-03-06T14:33:44.261Z,19.22
2017-03-06T14:34:55.328Z,19.16
2017-03-06T14:36:06.263Z,19.13
2017-03-06T14:37:17.096Z,19.26
2017-03-06T14:38:27.075Z,19.21
2017-03-06T14:39:37.216Z,19.25
2017-03-06T14:40:48.144Z,19.29
2017-03-06T14:41:58.634Z,19.29
2017-03-06T14:43:09.086Z,19.21
2017-03-06T14:44:19.256Z,19.28
2017-03-06T14:45:29.394Z,19.32
2017-03-06T14:46:39.635Z,19.26
2017-03-06T14:47:49.595Z,19.29
2017-03-06T14:48:59.349Z,19.25
2017-03-06T14:50:09.101Z,19.31
2017-03-06T14:51:19.644Z,19.28
2017-03-06T14:52:29.395Z,19.36
2017-03-06T14:53:39.833Z,19.33
2017-03-06T14:54:50.895Z,19.39
2017-03-06T14:56:01.105Z,19.33
2017-03-06T14:57:10.578Z,19.36
2017-03-06T14:58:20.461Z,19.39
2017-03-06T14:59:30.362Z,19.43
2017-03-06T15:00:41.027Z,19.48
2017-03-06T15:01:52.334Z,19.47
2017-03-06T15:03:02.740Z,19.5
2017-03-06T15:04:12.095Z,19.5
2017-03-06T15:05:21.520Z,19.5
2017-03-06T15:06:30.881Z,19.55